createdAt,value
2023-05-24T00:02:27.187Z,13.48
2023-05-24T00:04:54.067Z,11.82
2023-05-24T00:07:20.819Z,12.85
2023-05-24T00:09:47.471Z,10.65
2023-05-24T00:12:14.135Z,12.43
2023-05-24T00:14:41.083Z,12.13
2023-05-24T00:17:07.820Z,12.30
2023-05-24T00:19:38.368Z,15.02
2023-05-24T00:22:05.326Z,14.90
2023-05-24T00:24:32.017Z,11.98
2023-05-24T00:26:58.704Z,11.68
2023-05-24T00:29:25.560Z,12.13
2023-05-24T00:31:52.336Z,14.65
2023-05-24T00:34:19.273Z,12.63
2023-05-24T00:36:46.439Z,12.40
2023-05-24T00:39:13.107Z,12.27
2023-05-24T00:41:39.739Z,11.30
2023-05-24T00:44:06.408Z,14.40
2023-05-24T00:46:33.776Z,14.18
2023-05-24T00:49:00.790Z,15.45
2023-05-24T00:51:28.087Z,14.43
2023-05-24T00:53:55.507Z,12.90
2023-05-24T00:56:22.830Z,12.88
2023-05-24T00:58:50.905Z,11.32
2023-05-24T01:01:18.140Z,11.98
2023-05-24T01:03:46.365Z,14.50
2023-05-24T01:06:13.532Z,12.88
2023-05-24T01:08:40.406Z,11.85
2023-05-24T01:11:32.021Z,12.45
2023-05-24T01:14:10.861Z,14.52
2023-05-24T01:16:46.675Z,13.88
2023-05-24T01:20:11.791Z,14.93
2023-05-24T01:22:38.414Z,15.15
2023-05-24T01:25:07.552Z,14.70
2023-05-24T01:27:34.732Z,15.43
2023-05-24T01:30:01.623Z,16.05
2023-05-24T01:32:28.692Z,15.77
2023-05-24T01:34:55.541Z,15.32
2023-05-24T01:37:22.289Z,18.05
2023-05-24T01:39:48.926Z,18.55
2023-05-24T01:42:24.897Z,15.75
2023-05-24T01:44:57.584Z,15.80
2023-05-24T01:47:51.860Z,14.82
2023-05-24T01:50:39.076Z,17.05
2023-05-24T01:53:09.722Z,17.10
2023-05-24T01:55:36.509Z,12.48
2023-05-24T01:58:03.856Z,12.20
2023-05-24T02:00:30.784Z,11.23
2023-05-24T02:02:58.278Z,13.32
2023-05-24T02:05:25.109Z,14.38
2023-05-24T02:07:52.508Z,14.55
2023-05-24T02:10:19.279Z,10.65
2023-05-24T02:12:46.066Z,11.85
2023-05-24T02:15:14.885Z,14.00
2023-05-24T02:17:42.971Z,15.32
2023-05-24T02:20:10.174Z,15.15
2023-05-24T02:22:36.947Z,13.00
2023-05-24T02:25:03.846Z,20.27
2023-05-24T02:27:30.799Z,17.02
2023-05-24T02:29:57.708Z,12.90
2023-05-24T02:32:24.524Z,14.10
2023-05-24T02:34:51.403Z,12.75
2023-05-24T02:37:18.126Z,18.38
2023-05-24T02:39:44.753Z,14.23
2023-05-24T02:42:11.533Z,14.95
2023-05-24T02:44:38.278Z,15.02
2023-05-24T02:47:05.566Z,14.40
2023-05-24T02:49:32.223Z,16.33
2023-05-24T02:51:59.204Z,17.25
2023-05-24T02:54:25.915Z,14.93
2023-05-24T02:56:52.921Z,12.30
2023-05-24T02:59:19.604Z,17.63
2023-05-24T03:01:46.396Z,14.38
2023-05-24T03:04:13.108Z,16.02
2023-05-24T03:06:39.909Z,18.02
2023-05-24T03:09:06.911Z,15.10
2023-05-24T03:11:34.073Z,16.52
2023-05-24T03:14:00.822Z,18.30
2023-05-24T03:16:27.484Z,21.83
2023-05-24T03:18:55.519Z,18.65
2023-05-24T03:21:23.782Z,16.83
2023-05-24T03:23:50.579Z,16.15
2023-05-24T03:26:18.723Z,17.50
2023-05-24T03:28:45.557Z,20.50
2023-05-24T03:31:12.575Z,18.83
2023-05-24T03:33:39.352Z,18.58
2023-05-24T03:36:09.456Z,19.13
2023-05-24T03:38:36.208Z,18.70
2023-05-24T03:41:02.884Z,17.70
2023-05-24T03:43:29.665Z,20.10
2023-05-24T03:45:56.419Z,17.75
2023-05-24T03:48:23.150Z,15.63
2023-05-24T03:50:49.804Z,16.00
2023-05-24T03:53:16.433Z,16.38
2023-05-24T03:55:43.186Z,17.45
2023-05-24T03:58:09.869Z,20.02
2023-05-24T04:00:36.555Z,24.35
2023-05-24T04:03:03.446Z,19.90
2023-05-24T04:05:30.239Z,19.80
2023-05-24T04:07:56.998Z,19.73
2023-05-24T04:10:23.642Z,22.13
2023-05-24T04:12:50.383Z,20.05
2023-05-24T04:15:17.284Z,20.48
2023-05-24T04:17:44.677Z,19.05
2023-05-24T04:20:11.929Z,20.17
2023-05-24T04:22:38.934Z,18.73
2023-05-24T04:25:06.511Z,23.98
2023-05-24T04:27:33.252Z,20.98
2023-05-24T04:30:00.022Z,19.73
2023-05-24T04:32:26.744Z,20.50
2023-05-24T04:34:53.764Z,19.92
2023-05-24T04:37:20.815Z,21.17
2023-05-24T04:39:47.520Z,18.25
2023-05-24T04:42:14.437Z,22.17
2023-05-24T04:44:41.209Z,20.02
2023-05-24T04:47:09.019Z,18.05
2023-05-24T04:49:35.883Z,18.63
2023-05-24T04:52:02.589Z,15.43
2023-05-24T04:54:29.483Z,15.35
2023-05-24T04:56:56.147Z,13.13
2023-05-24T04:59:22.806Z,13.88
2023-05-24T05:01:49.778Z,14.98
2023-05-24T05:04:16.664Z,13.52
2023-05-24T05:06:44.754Z,12.80
2023-05-24T05:09:13.627Z,16.55
2023-05-24T05:11:40.645Z,11.30
2023-05-24T05:14:09.656Z,13.98
2023-05-24T05:16:37.189Z,12.18
2023-05-24T05:19:07.018Z,11.65
2023-05-24T05:21:33.976Z,11.07
2023-05-24T05:24:01.315Z,15.88
2023-05-24T05:26:28.322Z,10.75
2023-05-24T05:28:55.157Z,9.73
2023-05-24T05:31:22.190Z,8.60
2023-05-24T05:33:49.154Z,9.50
2023-05-24T05:36:16.311Z,8.77
2023-05-24T05:38:43.089Z,15.25
2023-05-24T05:41:09.997Z,9.68
2023-05-24T05:43:36.638Z,8.80
2023-05-24T05:46:03.359Z,9.75
2023-05-24T05:48:45.632Z,8.23
2023-05-24T05:51:13.413Z,7.30
2023-05-24T05:53:40.208Z,6.78
2023-05-24T05:56:07.351Z,5.07
2023-05-24T05:58:34.006Z,6.60
2023-05-24T06:01:00.706Z,5.50
2023-05-24T06:03:27.607Z,5.45
2023-05-24T06:05:54.467Z,8.75
2023-05-24T06:08:21.134Z,3.42
2023-05-24T06:10:48.496Z,4.97
2023-05-24T06:13:16.008Z,3.22
2023-05-24T06:15:42.831Z,2.95
2023-05-24T06:18:09.564Z,2.65
2023-05-24T06:20:36.993Z,2.60
2023-05-24T06:23:03.825Z,4.55
2023-05-24T06:25:31.008Z,5.70
2023-05-24T06:27:57.748Z,5.20
2023-05-24T06:30:24.545Z,4.75
2023-05-24T06:32:51.457Z,3.40
2023-05-24T06:35:18.131Z,5.40
2023-05-24T06:37:44.761Z,2.70
2023-05-24T06:40:31.953Z,4.18
2023-05-24T06:42:58.796Z,8.35
2023-05-24T06:45:25.532Z,3.95
2023-05-24T06:47:52.373Z,5.03
2023-05-24T06:50:19.048Z,3.92
2023-05-24T06:52:45.681Z,5.45
2023-05-24T06:55:12.363Z,3.75
2023-05-24T06:57:39.046Z,6.90
2023-05-24T07:00:12.535Z,3.40
2023-05-24T07:02:39.420Z,3.00
2023-05-24T07:05:06.756Z,3.20
2023-05-24T07:07:33.768Z,4.45
2023-05-24T07:10:00.509Z,4.35
2023-05-24T07:12:27.176Z,5.63
2023-05-24T07:14:56.163Z,4.25
2023-05-24T07:17:22.990Z,4.88
2023-05-24T07:19:49.769Z,3.13
2023-05-24T07:22:16.629Z,4.07
2023-05-24T07:24:43.672Z,4.05
2023-05-24T07:27:10.308Z,6.10
2023-05-24T07:29:37.022Z,4.93
2023-05-24T07:32:04.105Z,5.28
2023-05-24T07:34:31.516Z,8.23
2023-05-24T07:37:00.836Z,4.88
2023-05-24T07:39:27.785Z,7.50
2023-05-24T07:41:54.810Z,4.47
2023-05-24T07:44:21.506Z,4.68
2023-05-24T07:46:48.306Z,4.70
2023-05-24T07:49:15.175Z,3.75
2023-05-24T07:51:41.904Z,6.13
2023-05-24T07:54:08.683Z,2.95
2023-05-24T07:56:36.213Z,6.35
2023-05-24T07:59:05.715Z,5.10
2023-05-24T08:01:34.420Z,5.78
2023-05-24T08:04:02.902Z,4.43
2023-05-24T08:06:30.757Z,3.92
2023-05-24T08:08:57.725Z,4.82
2023-05-24T08:11:24.480Z,5.80
2023-05-24T08:13:51.452Z,6.72
2023-05-24T08:16:18.874Z,4.82
2023-05-24T08:18:46.161Z,5.57
2023-05-24T08:21:12.999Z,7.15
2023-05-24T08:23:39.666Z,6.15
2023-05-24T08:26:06.455Z,6.15
2023-05-24T08:28:33.581Z,5.03
2023-05-24T08:31:00.397Z,5.28
2023-05-24T08:33:27.087Z,5.43
2023-05-24T08:35:53.866Z,8.20
2023-05-24T08:38:20.508Z,7.10
2023-05-24T08:40:48.196Z,5.70
2023-05-24T08:43:14.854Z,5.82
2023-05-24T08:45:41.613Z,5.20
2023-05-24T08:48:09.321Z,6.35
2023-05-24T08:50:36.040Z,5.28
2023-05-24T08:53:04.808Z,5.32
2023-05-24T08:55:33.523Z,6.78
2023-05-24T08:58:00.745Z,4.65
2023-05-24T09:00:27.619Z,7.50
2023-05-24T09:02:54.389Z,4.30
2023-05-24T09:05:23.962Z,5.70
2023-05-24T09:07:53.362Z,5.75
2023-05-24T09:10:21.683Z,5.18
2023-05-24T09:12:52.351Z,5.90
2023-05-24T09:15:19.203Z,6.95
2023-05-24T09:17:45.945Z,5.80
2023-05-24T09:20:12.825Z,9.15
2023-05-24T09:22:42.311Z,6.65
2023-05-24T09:25:10.242Z,4.82
2023-05-24T09:27:37.037Z,5.65
2023-05-24T09:30:05.585Z,11.98
2023-05-24T09:32:32.463Z,7.55
2023-05-24T09:34:59.249Z,5.53
2023-05-24T09:37:32.878Z,9.55
2023-05-24T09:40:29.991Z,9.30
2023-05-24T09:43:08.821Z,5.43
2023-05-24T09:45:46.821Z,5.88
2023-05-24T09:49:14.359Z,7.32
2023-05-24T09:55:28.799Z,7.88
2023-05-24T09:58:06.008Z,8.30
2023-05-24T10:00:40.000Z,7.60
2023-05-24T10:03:08.574Z,10.48
2023-05-24T10:05:36.038Z,7.10
2023-05-24T10:08:05.054Z,9.27
2023-05-24T10:10:32.691Z,9.57
2023-05-24T10:12:59.938Z,9.88
2023-05-24T10:15:27.591Z,9.77
2023-05-24T10:17:54.931Z,8.45
2023-05-24T10:20:23.147Z,10.60
2023-05-24T10:22:52.706Z,7.47
2023-05-24T10:25:25.669Z,8.23
2023-05-24T10:28:00.831Z,8.80
2023-05-24T10:30:40.519Z,11.55
2023-05-24T10:33:08.242Z,8.00
2023-05-24T10:35:38.035Z,8.68
2023-05-24T10:38:08.024Z,9.73
2023-05-24T10:40:35.131Z,10.60
2023-05-24T10:43:06.636Z,12.73
2023-05-24T10:45:40.723Z,17.23
2023-05-24T10:48:13.845Z,11.27
2023-05-24T10:50:41.180Z,11.63
2023-05-24T10:53:12.798Z,14.50
2023-05-24T10:55:53.126Z,14.63
2023-05-24T10:58:20.448Z,16.63
2023-05-24T11:00:48.944Z,18.02
2023-05-24T11:03:23.784Z,17.42
2023-05-24T11:05:51.834Z,15.48
2023-05-24T11:08:26.119Z,18.08
2023-05-24T11:13:41.453Z,17.42
2023-05-24T11:16:08.293Z,19.25
2023-05-24T11:18:40.090Z,21.02
2023-05-24T11:21:06.902Z,22.70
2023-05-24T11:23:35.411Z,23.20
2023-05-24T11:26:03.825Z,20.90
2023-05-24T11:29:28.050Z,20.92
2023-05-24T11:31:57.761Z,21.73
2023-05-24T11:48:30.859Z,17.67
2023-05-24T11:50:57.971Z,22.92
2023-05-24T11:53:24.965Z,20.75
2023-05-24T11:55:54.460Z,19.92
2023-05-24T11:58:37.182Z,19.98
2023-05-24T12:01:04.099Z,21.38
2023-05-24T12:18:23.646Z,25.95
2023-05-24T12:20:50.827Z,26.40
2023-05-24T12:23:20.631Z,28.95
2023-05-24T12:25:47.460Z,27.48
2023-05-24T12:28:14.203Z,27.58
2023-05-24T12:30:43.585Z,23.88
2023-05-24T12:33:11.311Z,22.35
2023-05-24T12:35:40.569Z,21.38
2023-05-24T12:38:08.851Z,21.60
2023-05-24T12:40:35.830Z,21.92
2023-05-24T12:43:02.825Z,24.55
2023-05-24T12:45:29.540Z,22.10
2023-05-24T12:47:58.141Z,21.63
2023-05-24T12:50:25.896Z,20.27
2023-05-24T12:52:53.246Z,17.75
2023-05-24T12:55:21.953Z,14.57
2023-05-24T12:57:53.308Z,15.82
2023-05-24T13:00:27.016Z,15.77
2023-05-24T13:02:56.243Z,14.93
2023-05-24T13:05:24.306Z,14.60
2023-05-24T13:07:51.646Z,16.65
2023-05-24T13:10:19.556Z,15.63
2023-05-24T13:12:47.153Z,13.10
2023-05-24T13:15:14.273Z,13.95
2023-05-24T13:17:41.812Z,13.77
2023-05-24T13:20:11.303Z,14.68
2023-05-24T13:22:38.820Z,12.98
2023-05-24T13:25:07.177Z,14.30
2023-05-24T13:27:34.481Z,11.93
2023-05-24T13:30:02.703Z,16.45
2023-05-24T13:32:29.523Z,11.88
2023-05-24T13:34:56.259Z,16.75
2023-05-24T13:37:23.633Z,11.45
2023-05-24T13:39:50.574Z,15.63
2023-05-24T13:42:17.321Z,12.13
2023-05-24T13:44:44.070Z,12.57
2023-05-24T13:47:10.799Z,14.52
2023-05-24T13:49:38.119Z,15.75
2023-05-24T13:52:04.976Z,14.02
2023-05-24T13:54:32.256Z,16.33
2023-05-24T13:56:59.629Z,14.93
2023-05-24T13:59:27.451Z,17.90
2023-05-24T14:01:54.169Z,15.07
2023-05-24T14:04:20.879Z,14.70
2023-05-24T14:06:47.556Z,15.20
2023-05-24T14:09:15.261Z,19.42
2023-05-24T14:11:42.031Z,14.80
2023-05-24T14:16:38.380Z,13.98
2023-05-24T14:19:05.151Z,14.98
2023-05-24T14:23:59.069Z,14.18
2023-05-24T14:26:25.797Z,13.50
2023-05-24T14:28:55.947Z,11.27
2023-05-24T14:31:23.277Z,11.40
2023-05-24T14:33:50.004Z,11.57
2023-05-24T14:36:16.729Z,10.98
2023-05-24T14:38:43.398Z,14.05
2023-05-24T14:41:10.181Z,16.17
2023-05-24T14:43:37.936Z,15.23
2023-05-24T14:46:04.731Z,13.32
2023-05-24T14:48:31.458Z,14.70
2023-05-24T14:50:58.195Z,15.25
2023-05-24T14:53:24.871Z,15.13
2023-05-24T14:55:53.876Z,13.60
2023-05-24T14:58:20.578Z,13.45
2023-05-24T15:00:47.502Z,12.02
2023-05-24T15:03:15.157Z,11.07
2023-05-24T15:05:45.625Z,15.07
2023-05-24T15:08:12.470Z,13.18
2023-05-24T15:11:33.357Z,13.00
2023-05-24T15:14:01.013Z,12.63
2023-05-24T15:16:27.974Z,12.63
2023-05-24T15:18:55.031Z,13.30
2023-05-24T15:21:21.733Z,15.55
2023-05-24T15:23:48.429Z,12.93
2023-05-24T15:26:15.159Z,19.77
2023-05-24T15:28:41.898Z,16.67
2023-05-24T15:31:08.595Z,15.68
2023-05-24T15:33:36.321Z,13.10
2023-05-24T15:36:04.194Z,15.27
2023-05-24T15:38:31.229Z,14.73
2023-05-24T15:40:57.904Z,21.25
2023-05-24T15:43:24.562Z,17.48
2023-05-24T15:45:51.463Z,19.02
2023-05-24T15:48:18.242Z,15.75
2023-05-24T15:51:09.395Z,21.85
2023-05-24T15:53:32.541Z,19.55
2023-05-24T15:55:59.805Z,19.27
2023-05-24T15:58:26.491Z,19.73
2023-05-24T16:00:54.538Z,17.83
2023-05-24T16:03:21.402Z,22.02
2023-05-24T16:05:49.466Z,18.95
2023-05-24T16:08:17.173Z,22.60
2023-05-24T16:10:44.638Z,18.13
2023-05-24T16:13:11.655Z,20.05
2023-05-24T16:15:41.087Z,20.17
2023-05-24T16:18:08.522Z,21.50
2023-05-24T16:20:35.327Z,18.70
2023-05-24T16:23:03.253Z,17.55
2023-05-24T16:25:29.954Z,18.40
2023-05-24T16:27:56.814Z,14.32
2023-05-24T16:30:23.706Z,15.75
2023-05-24T16:32:50.516Z,19.75
2023-05-24T16:35:17.229Z,14.40
2023-05-24T16:37:44.014Z,20.70
2023-05-24T16:40:11.199Z,19.00
2023-05-24T16:42:37.865Z,17.35
2023-05-24T16:45:05.247Z,17.40
2023-05-24T16:47:32.537Z,17.58
2023-05-24T16:49:59.220Z,17.20
2023-05-24T16:56:10.523Z,21.67
2023-05-24T16:58:37.478Z,19.02
2023-05-24T17:01:04.221Z,18.25
2023-05-24T17:04:11.658Z,20.40
2023-05-24T17:06:38.565Z,19.27
2023-05-24T17:09:05.246Z,21.00
2023-05-24T17:11:32.040Z,19.40
2023-05-24T17:13:58.763Z,19.80
2023-05-24T17:16:28.212Z,19.23
2023-05-24T17:18:58.638Z,21.00
2023-05-24T17:21:27.992Z,19.63
2023-05-24T17:23:55.625Z,27.60
2023-05-24T17:26:26.343Z,23.55
2023-05-24T17:28:53.148Z,24.40
2023-05-24T17:31:20.002Z,22.70
2023-05-24T17:33:46.750Z,25.90
2023-05-24T17:36:13.505Z,27.50
2023-05-24T17:38:40.296Z,31.60
2023-05-24T17:41:10.053Z,31.60
2023-05-24T17:43:38.778Z,37.40
2023-05-24T17:46:08.358Z,30.70
2023-05-24T17:48:41.983Z,32.15
2023-05-24T17:51:10.519Z,28.45
2023-05-24T17:53:38.106Z,27.40
2023-05-24T17:56:05.461Z,24.90
2023-05-24T17:58:35.666Z,25.42
2023-05-24T18:01:07.001Z,26.02
2023-05-24T18:03:36.573Z,27.52
2023-05-24T18:06:04.244Z,29.38
2023-05-24T18:08:31.786Z,23.20
2023-05-24T18:10:58.734Z,26.25
2023-05-24T18:13:25.891Z,33.47
2023-05-24T18:15:52.679Z,24.35
2023-05-24T18:18:19.413Z,30.02
2023-05-24T18:20:46.109Z,26.83
2023-05-24T18:23:13.173Z,30.67
2023-05-24T18:25:39.811Z,31.13
2023-05-24T18:28:07.400Z,26.48
2023-05-24T18:30:34.192Z,31.15
2023-05-24T18:33:07.000Z,30.60
2023-05-24T18:35:35.133Z,25.60
2023-05-24T18:38:01.806Z,30.40
2023-05-24T18:40:28.462Z,30.48
2023-05-24T18:42:55.182Z,30.38
2023-05-24T18:45:22.087Z,28.92
2023-05-24T18:47:48.775Z,28.33
2023-05-24T18:50:15.699Z,25.83
2023-05-24T18:52:42.457Z,26.60
2023-05-24T18:55:12.048Z,27.77
2023-05-24T18:57:39.338Z,25.67
2023-05-24T19:00:07.416Z,28.20
2023-05-24T19:02:41.010Z,29.77
2023-05-24T19:05:08.377Z,28.30
2023-05-24T19:07:35.517Z,28.02
2023-05-24T19:10:02.369Z,24.65
2023-05-24T19:12:29.157Z,25.13
2023-05-24T19:14:55.926Z,25.83
2023-05-24T19:17:24.284Z,23.88
2023-05-24T19:19:51.110Z,28.08
2023-05-24T19:22:17.805Z,21.90
2023-05-24T19:24:44.454Z,22.15
2023-05-24T19:27:11.235Z,22.77
2023-05-24T19:29:39.779Z,21.85
2023-05-24T19:32:07.362Z,22.55
2023-05-24T19:34:35.511Z,22.48
2023-05-24T19:37:02.201Z,21.63
2023-05-24T19:39:29.300Z,25.00
2023-05-24T19:41:56.005Z,26.23
2023-05-24T19:44:22.640Z,23.85
2023-05-24T19:46:49.355Z,28.50
2023-05-24T19:49:16.032Z,26.20
2023-05-24T19:51:42.873Z,24.35
2023-05-24T19:54:09.500Z,25.85
2023-05-24T19:56:36.354Z,25.95
2023-05-24T19:59:03.262Z,23.42
2023-05-24T20:01:29.989Z,26.15
2023-05-24T20:03:56.718Z,26.40
2023-05-24T20:06:23.484Z,24.67
2023-05-24T20:08:50.164Z,22.75
2023-05-24T20:11:16.866Z,28.15
2023-05-24T20:13:43.566Z,33.17
2023-05-24T20:16:10.239Z,33.20
2023-05-24T20:18:37.289Z,35.45
2023-05-24T20:21:04.064Z,31.77
2023-05-24T20:23:31.577Z,29.88
2023-05-24T20:25:58.233Z,36.60
2023-05-24T20:28:30.548Z,34.05
2023-05-24T20:30:58.724Z,36.13
2023-05-24T20:33:25.564Z,31.75
2023-05-24T20:35:54.072Z,34.55
2023-05-24T20:38:20.749Z,34.03
2023-05-24T20:40:47.462Z,35.90
2023-05-24T20:43:14.187Z,33.85
2023-05-24T20:45:40.971Z,32.80
2023-05-24T20:48:07.718Z,35.90
2023-05-24T20:50:34.564Z,34.47
2023-05-24T20:53:01.388Z,37.88
2023-05-24T20:55:28.082Z,36.90
2023-05-24T20:57:54.739Z,37.03
2023-05-24T21:00:21.422Z,31.90
2023-05-24T21:02:48.192Z,33.65
2023-05-24T21:05:15.010Z,31.48
2023-05-24T21:07:41.710Z,31.23
2023-05-24T21:10:09.431Z,34.33
2023-05-24T21:12:36.112Z,29.35
2023-05-24T21:15:02.805Z,27.70
2023-05-24T21:17:29.578Z,32.25
2023-05-24T21:19:56.307Z,31.95
2023-05-24T21:22:23.101Z,27.65
2023-05-24T21:24:50.016Z,31.38
2023-05-24T21:27:18.443Z,32.67
2023-05-24T21:29:46.064Z,28.40
2023-05-24T21:32:12.722Z,29.17
2023-05-24T21:34:39.387Z,28.92
2023-05-24T21:37:06.090Z,23.42
2023-05-24T21:39:32.915Z,23.27
2023-05-24T21:41:59.589Z,21.08
2023-05-24T21:44:26.283Z,23.05
2023-05-24T21:46:53.017Z,22.17
2023-05-24T21:49:21.407Z,25.55
2023-05-24T21:51:48.137Z,24.77
2023-05-24T21:54:15.114Z,21.25
2023-05-24T21:56:41.782Z,23.95
2023-05-24T21:59:08.467Z,18.48
2023-05-24T22:01:35.315Z,19.05
2023-05-24T22:04:02.006Z,19.05
2023-05-24T22:06:28.703Z,19.60
2023-05-24T22:08:57.948Z,24.17
2023-05-24T22:11:24.647Z,19.90
2023-05-24T22:13:51.647Z,17.63
2023-05-24T22:16:18.337Z,17.13
2023-05-24T22:18:45.128Z,21.02
2023-05-24T22:21:14.404Z,24.83
2023-05-24T22:23:41.375Z,24.33
2023-05-24T22:26:08.100Z,24.48
2023-05-24T22:28:53.889Z,21.90
2023-05-24T22:31:21.650Z,19.95
2023-05-24T22:33:49.013Z,17.90
2023-05-24T22:36:15.750Z,20.65
2023-05-24T22:38:42.487Z,17.50
2023-05-24T22:41:09.241Z,18.27
2023-05-24T22:43:35.983Z,16.50
2023-05-24T22:46:02.725Z,21.55
2023-05-24T22:48:29.492Z,18.85
2023-05-24T22:50:57.203Z,19.48
2023-05-24T22:53:24.076Z,17.83
2023-05-24T22:55:50.999Z,14.63
2023-05-24T22:58:21.719Z,22.05
2023-05-24T23:00:48.449Z,19.88
2023-05-24T23:03:15.197Z,19.73
2023-05-24T23:05:42.075Z,17.63
2023-05-24T23:08:13.210Z,23.25
2023-05-24T23:10:45.760Z,25.15
2023-05-24T23:13:16.882Z,27.38
2023-05-24T23:15:43.932Z,24.77
2023-05-24T23:18:16.400Z,23.48
2023-05-24T23:20:44.609Z,32.05
2023-05-24T23:23:12.417Z,37.00
2023-05-24T23:25:39.399Z,28.42
2023-05-24T23:28:06.093Z,35.58
2023-05-24T23:30:33.359Z,30.30
2023-05-24T23:33:00.187Z,30.73
2023-05-24T23:35:26.944Z,31.52
2023-05-24T23:37:53.863Z,30.70
2023-05-24T23:40:20.932Z,31.88
2023-05-24T23:42:47.764Z,33.75
2023-05-24T23:45:15.709Z,32.63
2023-05-24T23:47:42.437Z,29.63
2023-05-24T23:50:09.707Z,32.13
2023-05-24T23:52:36.385Z,29.63
2023-05-24T23:55:03.418Z,29.42
2023-05-24T23:57:30.054Z,38.60
2023-05-24T23:59:56.717Z,27.08
